createdAt,value
2023-11-23T00:00:12.485Z,12.90
2023-11-23T00:02:40.990Z,9.37
2023-11-23T00:05:09.795Z,11.67
2023-11-23T00:07:39.183Z,13.10
2023-11-23T00:10:08.029Z,9.27
2023-11-23T00:12:35.546Z,11.13
2023-11-23T00:15:03.382Z,8.32
2023-11-23T00:17:31.964Z,11.45
2023-11-23T00:20:00.154Z,14.65
2023-11-23T00:22:27.860Z,18.95
2023-11-23T00:24:55.533Z,14.57
2023-11-23T00:27:23.031Z,12.32
2023-11-23T00:29:50.786Z,11.82
2023-11-23T00:32:19.101Z,13.73
2023-11-23T00:34:46.547Z,12.70
2023-11-23T00:37:14.050Z,12.20
2023-11-23T00:39:41.489Z,12.73
2023-11-23T00:42:09.059Z,17.13
2023-11-23T00:44:38.517Z,11.18
2023-11-23T00:47:06.229Z,13.52
2023-11-23T00:49:35.123Z,13.55
2023-11-23T00:52:02.689Z,14.40
2023-11-23T00:54:31.407Z,11.95
2023-11-23T00:56:58.879Z,10.80
2023-11-23T00:59:26.311Z,11.13
2023-11-23T01:01:55.335Z,9.77
2023-11-23T01:04:22.964Z,13.73
2023-11-23T01:06:50.436Z,10.88
2023-11-23T01:09:18.963Z,13.52
2023-11-23T01:11:46.458Z,12.27
2023-11-23T01:14:14.147Z,10.37
2023-11-23T01:16:41.699Z,14.80
2023-11-23T01:19:09.197Z,14.67
2023-11-23T01:21:36.693Z,13.47
2023-11-23T01:24:04.862Z,15.18
2023-11-23T01:26:32.549Z,15.93
2023-11-23T01:28:59.961Z,14.93
2023-11-23T01:31:28.277Z,11.40
2023-11-23T01:33:55.799Z,14.43
2023-11-23T01:36:23.316Z,12.43
2023-11-23T01:38:51.115Z,12.07
2023-11-23T01:41:18.516Z,14.37
2023-11-23T01:43:47.187Z,12.45
2023-11-23T01:46:15.326Z,13.10
2023-11-23T01:48:45.602Z,14.43
2023-11-23T01:51:15.246Z,14.47
2023-11-23T01:53:43.228Z,15.37
2023-11-23T01:56:11.886Z,16.03
2023-11-23T01:58:39.567Z,14.90
2023-11-23T02:01:07.164Z,14.17
2023-11-23T02:03:34.895Z,14.97
2023-11-23T02:06:02.559Z,16.23
2023-11-23T02:08:30.062Z,12.05
2023-11-23T02:10:58.131Z,13.40
2023-11-23T02:13:26.072Z,13.10
2023-11-23T02:15:53.536Z,16.70
2023-11-23T02:18:21.046Z,13.85
2023-11-23T02:20:48.570Z,11.37
2023-11-23T02:23:16.042Z,12.00
2023-11-23T02:25:43.661Z,12.10
2023-11-23T02:28:11.333Z,14.60
2023-11-23T02:30:38.786Z,13.07
2023-11-23T02:33:09.164Z,14.20
2023-11-23T02:35:36.890Z,12.83
2023-11-23T02:38:04.311Z,14.57
2023-11-23T02:40:32.025Z,15.87
2023-11-23T02:42:59.798Z,15.90
2023-11-23T02:45:27.637Z,16.70
2023-11-23T02:47:55.310Z,14.60
2023-11-23T02:50:22.808Z,12.60
2023-11-23T02:52:50.180Z,16.67
2023-11-23T02:55:18.400Z,14.97
2023-11-23T02:57:46.632Z,13.47
2023-11-23T03:00:14.428Z,11.83
2023-11-23T03:02:42.014Z,14.50
2023-11-23T03:05:11.694Z,14.57
2023-11-23T03:07:40.102Z,13.40
2023-11-23T03:10:07.992Z,14.07
2023-11-23T03:12:35.392Z,15.37
2023-11-23T03:15:04.375Z,21.30
2023-11-23T03:17:33.368Z,15.97
2023-11-23T03:20:00.860Z,15.13
2023-11-23T03:22:28.308Z,12.37
2023-11-23T03:24:56.888Z,14.88
2023-11-23T03:27:24.465Z,13.77
2023-11-23T03:29:52.053Z,12.00
2023-11-23T03:32:19.521Z,15.80
2023-11-23T03:34:47.086Z,19.67
2023-11-23T03:37:14.629Z,13.80
2023-11-23T03:39:42.105Z,15.60
2023-11-23T03:42:10.312Z,14.17
2023-11-23T03:44:37.742Z,13.33
2023-11-23T03:47:05.382Z,16.10
2023-11-23T03:49:32.833Z,14.20
2023-11-23T03:52:00.316Z,15.60
2023-11-23T03:54:28.010Z,14.57
2023-11-23T03:56:55.619Z,14.97
2023-11-23T03:59:23.107Z,12.73
2023-11-23T04:01:50.681Z,15.33
2023-11-23T04:04:18.330Z,15.60
2023-11-23T04:06:46.798Z,14.43
2023-11-23T04:09:14.491Z,11.70
2023-11-23T04:11:42.243Z,15.83
2023-11-23T04:14:09.678Z,13.13
2023-11-23T04:16:39.936Z,13.43
2023-11-23T04:19:07.339Z,16.90
2023-11-23T04:21:34.782Z,15.17
2023-11-23T04:24:02.242Z,12.47
2023-11-23T04:26:29.974Z,14.47
2023-11-23T04:28:57.380Z,16.43
2023-11-23T04:31:27.514Z,15.27
2023-11-23T04:33:54.975Z,14.33
2023-11-23T04:36:23.477Z,17.13
2023-11-23T04:38:50.989Z,17.80
2023-11-23T04:41:18.408Z,23.00
2023-11-23T04:43:45.829Z,16.80
2023-11-23T04:46:14.068Z,17.93
2023-11-23T04:48:41.506Z,18.43
2023-11-23T04:51:09.104Z,22.90
2023-11-23T04:53:36.492Z,16.37
2023-11-23T04:56:03.981Z,18.73
2023-11-23T04:58:31.425Z,21.17
2023-11-23T05:01:00.256Z,17.57
2023-11-23T05:03:31.299Z,11.27
2023-11-23T05:05:59.091Z,13.57
2023-11-23T05:08:26.546Z,13.13
2023-11-23T05:10:54.607Z,16.00
2023-11-23T05:13:22.084Z,21.53
2023-11-23T05:15:49.530Z,19.13
2023-11-23T05:18:17.125Z,16.03
2023-11-23T05:20:44.669Z,13.90
2023-11-23T05:23:12.154Z,11.80
2023-11-23T05:25:39.574Z,15.57
2023-11-23T05:28:07.421Z,22.77
2023-11-23T05:30:35.698Z,17.60
2023-11-23T05:33:03.334Z,18.80
2023-11-23T05:35:32.022Z,16.77
2023-11-23T05:37:59.740Z,24.47
2023-11-23T05:40:27.156Z,20.47
2023-11-23T05:43:01.217Z,17.40
2023-11-23T05:45:33.757Z,17.57
2023-11-23T05:48:01.383Z,16.90
2023-11-23T05:50:28.854Z,16.10
2023-11-23T05:52:56.277Z,16.93
2023-11-23T05:55:23.728Z,14.10
2023-11-23T05:57:51.179Z,13.17
2023-11-23T06:00:19.088Z,18.83
2023-11-23T06:02:46.689Z,16.43
2023-11-23T06:05:16.236Z,13.13
2023-11-23T06:07:43.788Z,15.73
2023-11-23T06:10:12.947Z,14.73
2023-11-23T06:12:41.553Z,22.43
2023-11-23T06:15:10.301Z,16.13
2023-11-23T06:17:37.836Z,19.63
2023-11-23T06:20:08.971Z,20.03
2023-11-23T06:22:36.863Z,19.73
2023-11-23T06:25:05.059Z,20.03
2023-11-23T06:27:34.891Z,18.07
2023-11-23T06:30:02.634Z,16.30
2023-11-23T06:32:30.352Z,19.53
2023-11-23T06:34:57.852Z,14.33
2023-11-23T06:37:25.283Z,16.03
2023-11-23T06:39:55.841Z,14.10
2023-11-23T06:42:23.472Z,12.77
2023-11-23T06:44:51.172Z,10.73
2023-11-23T06:47:18.617Z,12.53
2023-11-23T06:49:46.282Z,15.23
2023-11-23T06:52:13.673Z,13.70
2023-11-23T06:54:41.073Z,14.27
2023-11-23T06:57:09.105Z,14.73
2023-11-23T06:59:37.185Z,11.27
2023-11-23T07:02:05.310Z,11.10
2023-11-23T07:04:33.273Z,12.27
2023-11-23T07:07:00.737Z,12.37
2023-11-23T07:09:28.186Z,14.37
2023-11-23T07:11:55.866Z,16.27
2023-11-23T07:14:23.377Z,20.20
2023-11-23T07:16:53.107Z,14.37
2023-11-23T07:19:20.990Z,11.73
2023-11-23T07:21:51.276Z,15.00
2023-11-23T07:24:19.416Z,16.63
2023-11-23T07:26:47.074Z,15.53
2023-11-23T07:29:14.547Z,14.83
2023-11-23T07:31:43.712Z,16.47
2023-11-23T07:34:12.281Z,17.67
2023-11-23T07:36:39.710Z,16.10
2023-11-23T07:39:09.397Z,18.13
2023-11-23T07:41:38.043Z,16.90
2023-11-23T07:44:05.719Z,14.93
2023-11-23T07:46:33.290Z,21.30
2023-11-23T07:49:01.323Z,16.07
2023-11-23T07:51:28.773Z,15.07
2023-11-23T07:53:56.265Z,17.27
2023-11-23T07:56:23.807Z,16.43
2023-11-23T07:58:51.267Z,14.80
2023-11-23T08:01:18.649Z,15.53
2023-11-23T08:03:46.195Z,14.53
2023-11-23T08:06:13.742Z,17.90
2023-11-23T08:08:41.235Z,13.30
2023-11-23T08:11:11.004Z,15.33
2023-11-23T08:13:38.403Z,14.30
2023-11-23T08:16:05.712Z,18.10
2023-11-23T08:18:40.280Z,19.73
2023-11-23T08:21:14.729Z,34.47
2023-11-23T08:23:42.688Z,29.80
2023-11-23T08:26:12.177Z,24.93
2023-11-23T08:28:39.677Z,18.03
2023-11-23T08:31:08.609Z,16.27
2023-11-23T08:33:36.170Z,18.50
2023-11-23T08:36:03.768Z,18.40
2023-11-23T08:38:31.447Z,15.17
2023-11-23T08:40:58.953Z,16.73
2023-11-23T08:43:26.444Z,18.67
2023-11-23T08:45:53.953Z,15.40
2023-11-23T08:48:23.665Z,18.47
2023-11-23T08:50:51.286Z,19.33
2023-11-23T08:53:18.880Z,18.23
2023-11-23T08:55:49.423Z,18.90
2023-11-23T08:58:16.951Z,15.10
2023-11-23T09:00:44.744Z,16.07
2023-11-23T09:03:13.293Z,14.53
2023-11-23T09:05:40.904Z,15.50
2023-11-23T09:08:08.492Z,18.83
2023-11-23T09:10:36.068Z,18.43
2023-11-23T09:13:03.739Z,18.83
2023-11-23T09:15:31.453Z,10.77
2023-11-23T09:17:59.517Z,15.57
2023-11-23T09:20:27.568Z,14.23
2023-11-23T09:22:55.920Z,18.67
2023-11-23T09:25:23.451Z,16.50
2023-11-23T09:27:51.433Z,12.73
2023-11-23T09:30:19.059Z,11.33
2023-11-23T09:32:46.520Z,13.03
2023-11-23T09:35:14.102Z,14.87
2023-11-23T09:37:41.701Z,15.20
2023-11-23T09:40:10.645Z,14.40
2023-11-23T09:42:39.870Z,9.73
2023-11-23T09:45:13.750Z,11.20
2023-11-23T09:47:42.398Z,11.77
2023-11-23T09:50:12.835Z,9.50
2023-11-23T09:52:41.245Z,9.93
2023-11-23T09:55:09.668Z,10.23
2023-11-23T09:57:38.282Z,11.67
2023-11-23T10:00:10.512Z,8.83
2023-11-23T10:05:10.470Z,10.30
2023-11-23T10:07:38.119Z,11.83
2023-11-23T10:10:06.721Z,12.00
2023-11-23T10:12:37.432Z,8.23
2023-11-23T10:15:07.680Z,8.40
2023-11-23T10:17:35.399Z,10.27
2023-11-23T10:20:17.257Z,11.30
2023-11-23T10:22:48.993Z,9.15
2023-11-23T10:25:34.430Z,10.18
2023-11-23T10:28:02.686Z,8.57
2023-11-23T10:30:31.414Z,11.40
2023-11-23T10:33:01.089Z,9.13
2023-11-23T10:35:39.693Z,10.00
2023-11-23T10:38:08.783Z,8.30
2023-11-23T10:40:36.755Z,9.27
2023-11-23T10:43:04.850Z,10.07
2023-11-23T10:45:34.868Z,6.13
2023-11-23T10:48:04.287Z,8.52
2023-11-23T10:50:33.032Z,9.80
2023-11-23T10:53:03.020Z,7.47
2023-11-23T10:55:30.561Z,7.97
2023-11-23T10:58:14.828Z,8.20
2023-11-23T11:00:43.514Z,10.40
2023-11-23T11:03:12.717Z,7.57
2023-11-23T11:05:47.766Z,7.93
2023-11-23T11:08:22.252Z,11.53
2023-11-23T11:10:52.401Z,14.73
2023-11-23T11:13:22.632Z,10.70
2023-11-23T11:16:08.064Z,8.80
2023-11-23T11:18:36.392Z,7.87
2023-11-23T11:21:14.153Z,8.63
2023-11-23T11:23:55.349Z,9.87
2023-11-23T11:26:34.500Z,9.67
2023-11-23T11:29:07.051Z,7.53
2023-11-23T11:31:39.609Z,7.90
2023-11-23T11:34:15.683Z,7.40
2023-11-23T11:36:43.287Z,10.07
2023-11-23T11:39:13.827Z,10.50
2023-11-23T11:41:42.679Z,11.90
2023-11-23T11:44:11.721Z,11.10
2023-11-23T11:46:40.065Z,10.37
2023-11-23T11:49:08.090Z,10.93
2023-11-23T11:51:35.726Z,9.70
2023-11-23T11:54:05.470Z,13.47
2023-11-23T11:56:33.003Z,12.50
2023-11-23T11:59:00.487Z,13.93
2023-11-23T12:01:27.927Z,10.90
2023-11-23T12:03:55.492Z,11.77
2023-11-23T12:06:23.113Z,13.47
2023-11-23T12:08:51.034Z,13.50
2023-11-23T12:11:32.093Z,18.70
2023-11-23T12:14:01.075Z,17.00
2023-11-23T12:16:36.436Z,11.73
2023-11-23T12:19:22.336Z,15.20
2023-11-23T12:21:57.711Z,18.70
2023-11-23T12:24:29.449Z,14.67
2023-11-23T12:26:56.818Z,12.07
2023-11-23T12:29:32.251Z,14.30
2023-11-23T12:32:03.046Z,7.70
2023-11-23T12:34:32.131Z,5.23
2023-11-23T12:36:59.781Z,6.30
2023-11-23T12:39:29.417Z,6.90
2023-11-23T12:41:57.215Z,10.53
2023-11-23T12:44:24.728Z,5.80
2023-11-23T12:46:53.044Z,8.07
2023-11-23T12:49:21.391Z,7.10
2023-11-23T12:51:49.010Z,8.13
2023-11-23T12:54:16.651Z,13.03
2023-11-23T12:56:44.213Z,8.20
2023-11-23T12:59:11.742Z,9.47
2023-11-23T13:01:40.344Z,13.15
2023-11-23T13:04:09.772Z,12.20
2023-11-23T13:06:38.834Z,8.23
2023-11-23T13:09:13.037Z,7.67
2023-11-23T13:11:41.175Z,10.05
2023-11-23T13:14:10.583Z,10.93
2023-11-23T13:16:38.118Z,6.10
2023-11-23T13:19:16.957Z,11.93
2023-11-23T13:21:54.993Z,9.87
2023-11-23T13:24:22.628Z,16.63
2023-11-23T13:26:50.962Z,7.53
2023-11-23T13:29:19.676Z,18.85
2023-11-23T13:31:47.557Z,12.35
2023-11-23T13:34:16.209Z,9.33
2023-11-23T13:36:43.951Z,10.13
2023-11-23T13:39:15.331Z,15.80
2023-11-23T13:41:42.797Z,12.40
2023-11-23T13:44:11.925Z,15.38
2023-11-23T13:46:39.594Z,19.33
2023-11-23T13:49:11.561Z,15.70
2023-11-23T13:51:39.914Z,14.30
2023-11-23T13:54:09.782Z,15.23
2023-11-23T13:56:40.617Z,11.43
2023-11-23T13:59:10.041Z,12.97
2023-11-23T14:01:38.330Z,16.33
2023-11-23T14:04:07.049Z,10.07
2023-11-23T14:06:34.679Z,11.35
2023-11-23T14:09:04.021Z,16.58
2023-11-23T14:11:31.728Z,8.23
2023-11-23T14:13:59.495Z,16.80
2023-11-23T14:16:27.963Z,10.23
2023-11-23T14:18:55.479Z,9.48
2023-11-23T14:21:22.961Z,11.70
2023-11-23T14:23:51.146Z,7.25
2023-11-23T14:26:22.045Z,14.63
2023-11-23T14:28:50.384Z,15.82
2023-11-23T14:31:20.393Z,27.05
2023-11-23T14:33:48.658Z,12.80
2023-11-23T14:36:16.320Z,11.48
2023-11-23T14:38:43.842Z,9.38
2023-11-23T14:41:12.787Z,8.60
2023-11-23T14:43:40.279Z,15.95
2023-11-23T14:46:08.639Z,6.72
2023-11-23T14:48:36.696Z,8.60
2023-11-23T14:51:05.716Z,7.80
2023-11-23T14:53:33.211Z,4.45
2023-11-23T14:56:01.698Z,4.95
2023-11-23T14:58:29.395Z,7.35
2023-11-23T15:00:57.004Z,5.47
2023-11-23T15:03:27.384Z,10.95
2023-11-23T15:05:54.934Z,5.72
2023-11-23T15:08:22.372Z,7.80
2023-11-23T15:10:49.856Z,3.72
2023-11-23T15:13:22.836Z,2.85
2023-11-23T15:15:53.991Z,2.38
2023-11-23T15:18:23.506Z,5.15
2023-11-23T15:20:51.006Z,2.42
2023-11-23T15:23:20.690Z,1.25
2023-11-23T15:25:48.976Z,1.50
2023-11-23T15:28:16.385Z,3.40
2023-11-23T15:30:44.153Z,6.20
2023-11-23T15:33:11.893Z,1.77
2023-11-23T15:35:42.371Z,3.47
2023-11-23T15:38:11.549Z,2.22
2023-11-23T15:40:39.042Z,3.67
2023-11-23T15:43:06.562Z,8.00
2023-11-23T15:45:34.061Z,1.98
2023-11-23T15:48:01.730Z,6.03
2023-11-23T15:50:32.779Z,4.60
2023-11-23T15:53:00.599Z,2.77
2023-11-23T15:55:29.039Z,3.10
2023-11-23T15:57:56.871Z,5.15
2023-11-23T16:00:27.623Z,11.50
2023-11-23T16:02:57.518Z,4.05
2023-11-23T16:05:28.754Z,5.97
2023-11-23T16:07:56.740Z,4.95
2023-11-23T16:10:24.275Z,6.38
2023-11-23T16:12:52.632Z,10.55
2023-11-23T16:15:20.363Z,4.93
2023-11-23T16:17:48.420Z,12.77
2023-11-23T16:20:16.687Z,4.15
2023-11-23T16:22:48.088Z,7.82
2023-11-23T16:25:16.950Z,11.52
2023-11-23T16:27:44.733Z,9.35
2023-11-23T16:30:15.079Z,3.53
2023-11-23T16:32:43.572Z,3.97
2023-11-23T16:35:14.509Z,2.17
2023-11-23T16:37:42.308Z,3.13
2023-11-23T16:40:13.477Z,1.50
2023-11-23T16:42:43.083Z,2.37
2023-11-23T16:45:13.287Z,2.08
2023-11-23T16:47:44.883Z,2.28
2023-11-23T16:50:13.930Z,1.80
2023-11-23T16:52:41.566Z,1.63
2023-11-23T16:55:09.782Z,2.00
2023-11-23T16:57:37.692Z,2.60
2023-11-23T17:00:06.070Z,1.60
2023-11-23T17:02:33.705Z,1.88
2023-11-23T17:05:01.866Z,1.13
2023-11-23T17:07:29.447Z,1.75
2023-11-23T17:09:56.978Z,6.60
2023-11-23T17:12:24.476Z,2.67
2023-11-23T17:14:53.810Z,1.80
2023-11-23T17:17:21.689Z,1.77
2023-11-23T17:19:49.095Z,7.57
2023-11-23T17:22:16.505Z,2.00
2023-11-23T17:24:45.311Z,1.20
2023-11-23T17:27:15.766Z,2.22
2023-11-23T17:29:44.425Z,1.15
2023-11-23T17:32:11.922Z,1.90
2023-11-23T17:34:40.320Z,2.63
2023-11-23T17:37:08.242Z,1.45
2023-11-23T17:39:35.746Z,2.75
2023-11-23T17:42:03.280Z,1.98
2023-11-23T17:44:30.718Z,2.55
2023-11-23T17:46:58.187Z,1.33
2023-11-23T17:49:26.992Z,3.10
2023-11-23T17:51:55.942Z,1.50
2023-11-23T17:54:24.039Z,2.70
2023-11-23T17:56:51.516Z,2.25
2023-11-23T17:59:30.887Z,1.70
2023-11-23T18:02:06.877Z,1.63
2023-11-23T18:04:34.383Z,1.77
2023-11-23T18:07:02.494Z,5.32
2023-11-23T18:09:31.696Z,1.38
2023-11-23T18:12:01.691Z,3.72
2023-11-23T18:14:31.489Z,1.23
2023-11-23T18:16:59.089Z,2.42
2023-11-23T18:19:26.535Z,1.38
2023-11-23T18:21:54.032Z,3.30
2023-11-23T18:24:21.599Z,1.10
2023-11-23T18:26:49.071Z,9.13
2023-11-23T18:29:16.514Z,2.60
2023-11-23T18:31:43.982Z,0.88
2023-11-23T18:34:12.254Z,1.40
2023-11-23T18:36:40.067Z,1.33
2023-11-23T18:39:10.691Z,2.55
2023-11-23T18:41:38.472Z,1.40
2023-11-23T18:44:06.086Z,2.67
2023-11-23T18:46:33.611Z,2.03
2023-11-23T18:49:03.479Z,3.22
2023-11-23T18:51:30.967Z,3.22
2023-11-23T18:53:58.457Z,1.80
2023-11-23T18:56:25.986Z,1.70
2023-11-23T18:58:53.455Z,1.83
2023-11-23T19:01:21.218Z,1.42
2023-11-23T19:03:49.468Z,1.45
2023-11-23T19:06:18.520Z,1.67
2023-11-23T19:08:46.660Z,1.58
2023-11-23T19:11:15.201Z,3.78
2023-11-23T19:13:42.865Z,4.20
2023-11-23T19:16:10.568Z,1.90
2023-11-23T19:18:39.275Z,1.90
2023-11-23T19:21:07.018Z,3.03
2023-11-23T19:23:34.884Z,2.22
2023-11-23T19:26:06.922Z,2.08
2023-11-23T19:28:34.703Z,2.33
2023-11-23T19:31:06.478Z,2.30
2023-11-23T19:33:36.111Z,3.22
2023-11-23T19:36:04.088Z,2.65
2023-11-23T19:38:31.517Z,1.30
2023-11-23T19:41:02.529Z,2.33
2023-11-23T19:43:31.066Z,5.53
2023-11-23T19:45:59.040Z,4.25
2023-11-23T19:48:27.084Z,4.10
2023-11-23T19:50:54.910Z,3.25
2023-11-23T19:53:24.077Z,2.22
2023-11-23T19:55:52.395Z,2.35
2023-11-23T19:58:19.910Z,5.32
2023-11-23T20:00:47.683Z,3.47
2023-11-23T20:03:15.188Z,4.45
2023-11-23T20:05:43.555Z,2.75
2023-11-23T20:08:13.629Z,1.73
2023-11-23T20:10:44.973Z,3.38
2023-11-23T20:15:40.839Z,3.13
2023-11-23T20:18:08.350Z,2.10
2023-11-23T20:20:35.816Z,3.67
2023-11-23T20:23:03.966Z,4.90
2023-11-23T20:25:31.486Z,4.28
2023-11-23T20:27:58.929Z,2.17
2023-11-23T20:30:26.663Z,3.65
2023-11-23T20:32:54.274Z,4.50
2023-11-23T20:35:23.581Z,5.43
2023-11-23T20:37:54.210Z,3.92
2023-11-23T20:42:50.379Z,5.15
2023-11-23T20:45:17.955Z,2.90
2023-11-23T20:47:45.994Z,5.93
2023-11-23T20:50:14.959Z,4.20
2023-11-23T20:52:42.904Z,3.20
2023-11-23T20:55:13.164Z,3.33
2023-11-23T20:57:41.869Z,3.33
2023-11-23T21:00:13.012Z,4.22
2023-11-23T21:02:40.844Z,5.67
2023-11-23T21:05:09.480Z,3.47
2023-11-23T21:07:39.335Z,3.53
2023-11-23T21:10:08.950Z,3.25
2023-11-23T21:12:36.814Z,3.25
2023-11-23T21:15:05.554Z,5.32
2023-11-23T21:17:34.831Z,3.60
2023-11-23T21:20:03.026Z,2.85
2023-11-23T21:22:30.681Z,4.32
2023-11-23T21:24:58.300Z,3.03
2023-11-23T21:27:32.575Z,2.58
2023-11-23T21:30:00.072Z,2.83
2023-11-23T21:32:27.790Z,3.05
2023-11-23T21:34:55.518Z,2.75
2023-11-23T21:37:22.922Z,3.63
2023-11-23T21:39:50.392Z,2.72
2023-11-23T21:42:18.951Z,8.43
2023-11-23T21:44:46.736Z,2.38
2023-11-23T21:47:14.213Z,5.25
2023-11-23T21:49:45.179Z,5.22
2023-11-23T21:52:13.196Z,4.15
2023-11-23T21:54:47.128Z,4.03
2023-11-23T21:57:20.646Z,2.83
2023-11-23T21:59:48.129Z,3.75
2023-11-23T22:02:15.677Z,2.67
2023-11-23T22:04:45.842Z,3.47
2023-11-23T22:07:13.387Z,1.55
2023-11-23T22:09:40.823Z,2.60
2023-11-23T22:12:08.360Z,2.15
2023-11-23T22:14:37.502Z,1.95
2023-11-23T22:17:05.307Z,5.00
2023-11-23T22:19:32.653Z,1.05
2023-11-23T22:21:59.968Z,4.95
2023-11-23T22:24:28.213Z,1.75
2023-11-23T22:26:56.064Z,1.40
2023-11-23T22:29:23.627Z,1.55
2023-11-23T22:31:51.677Z,1.42
2023-11-23T22:34:19.057Z,3.55
2023-11-23T22:36:46.654Z,1.48
2023-11-23T22:39:15.281Z,1.25
2023-11-23T22:41:44.443Z,0.88
2023-11-23T22:44:13.671Z,1.95
2023-11-23T22:46:42.038Z,3.83
2023-11-23T22:49:09.683Z,8.32
2023-11-23T22:51:37.162Z,2.53
2023-11-23T22:54:04.774Z,0.90
2023-11-23T22:56:32.206Z,0.68
2023-11-23T22:58:59.707Z,1.13
2023-11-23T23:01:28.953Z,1.27
2023-11-23T23:03:56.595Z,0.82
2023-11-23T23:06:24.169Z,1.23
2023-11-23T23:08:51.640Z,2.50
2023-11-23T23:11:19.165Z,0.77
2023-11-23T23:13:46.726Z,1.10
2023-11-23T23:16:15.253Z,1.55
2023-11-23T23:18:42.723Z,1.63
2023-11-23T23:21:10.240Z,2.67
2023-11-23T23:23:37.675Z,1.85
2023-11-23T23:26:05.094Z,6.68
2023-11-23T23:28:33.032Z,1.00
2023-11-23T23:31:00.640Z,3.63
2023-11-23T23:33:28.240Z,1.33
2023-11-23T23:35:55.856Z,1.77
2023-11-23T23:38:23.418Z,2.30
2023-11-23T23:40:51.630Z,1.40
2023-11-23T23:43:19.484Z,2.95
2023-11-23T23:45:47.457Z,2.58
2023-11-23T23:48:15.360Z,1.30
2023-11-23T23:50:42.763Z,2.30
2023-11-23T23:53:10.174Z,1.63
2023-11-23T23:55:37.570Z,2.13
2023-11-23T23:58:05.821Z,2.35
